createdAt,value
2017-01-05T00:00:15.815Z,1.17
2017-01-05T00:00:37.987Z,1.13
2017-01-05T00:00:59.863Z,1.13
2017-01-05T00:01:21.951Z,1.12
2017-01-05T00:01:43.867Z,1.12
2017-01-05T00:02:10.513Z,1.11
2017-01-05T00:02:32.264Z,1.12
2017-01-05T00:02:54.021Z,1.11
2017-01-05T00:03:15.800Z,1.11
2017-01-05T00:03:37.556Z,1.12
2017-01-05T00:03:59.305Z,1.18
2017-01-05T00:04:21.081Z,1.19
2017-01-05T00:04:42.825Z,1.22
2017-01-05T00:05:04.583Z,1.23
2017-01-05T00:05:26.342Z,1.20
2017-01-05T00:05:48.077Z,1.20
2017-01-05T00:06:09.838Z,1.20
2017-01-05T00:06:31.664Z,1.18
2017-01-05T00:06:53.565Z,1.19
2017-01-05T00:07:20.132Z,1.18
2017-01-05T00:07:41.875Z,1.17
2017-01-05T00:08:09.428Z,1.16
2017-01-05T00:08:31.337Z,1.16
2017-01-05T00:08:53.165Z,1.15
2017-01-05T00:09:15.213Z,1.16
2017-01-05T00:09:37.191Z,1.17
2017-01-05T00:10:00.199Z,1.17
2017-01-05T00:10:23.201Z,1.16
2017-01-05T00:10:45.188Z,1.16
2017-01-05T00:11:07.346Z,1.12
2017-01-05T00:11:29.331Z,1.11
2017-01-05T00:11:51.165Z,1.10
2017-01-05T00:12:12.991Z,1.11
2017-01-05T00:12:34.740Z,1.09
2017-01-05T00:12:56.478Z,1.08
2017-01-05T00:13:18.220Z,1.12
2017-01-05T00:13:40.963Z,1.17
2017-01-05T00:14:02.708Z,1.12
2017-01-05T00:14:24.451Z,1.07
2017-01-05T00:14:46.188Z,1.04
2017-01-05T00:15:07.944Z,1.04
2017-01-05T00:15:29.708Z,1.01
2017-01-05T00:15:51.638Z,1.01
2017-01-05T00:16:13.581Z,0.98
2017-01-05T00:16:35.379Z,0.98
2017-01-05T00:16:57.246Z,0.99
2017-01-05T00:17:20.296Z,0.99
2017-01-05T00:17:42.087Z,1.00
2017-01-05T00:18:04.233Z,1.04
2017-01-05T00:18:26.100Z,1.00
2017-01-05T00:18:47.982Z,0.98
2017-01-05T00:19:09.909Z,0.99
2017-01-05T00:19:31.764Z,0.98
2017-01-05T00:19:53.641Z,1.00
2017-01-05T00:20:15.949Z,0.98
2017-01-05T00:20:38.810Z,1.01
2017-01-05T00:21:00.566Z,1.05
2017-01-05T00:21:22.298Z,1.04
2017-01-05T00:21:44.044Z,1.02
2017-01-05T00:22:05.793Z,1.01
2017-01-05T00:22:27.540Z,1.03
2017-01-05T00:22:49.340Z,0.98
2017-01-05T00:23:11.108Z,0.97
2017-01-05T00:23:32.846Z,0.97
2017-01-05T00:23:54.615Z,0.98
2017-01-05T00:24:16.368Z,1.04
2017-01-05T00:24:38.113Z,1.04
2017-01-05T00:24:59.897Z,1.03
2017-01-05T00:26:15.008Z,1.04
2017-01-05T00:26:36.979Z,1.04
2017-01-05T00:26:58.852Z,1.04
2017-01-05T00:27:20.815Z,1.04
2017-01-05T00:27:42.784Z,1.02
2017-01-05T00:28:04.662Z,1.01
2017-01-05T00:28:26.610Z,1.02
2017-01-05T00:28:48.345Z,1.01
2017-01-05T00:29:41.750Z,0.96
2017-01-05T00:30:04.032Z,0.96
2017-01-05T00:30:26.185Z,0.92
2017-01-05T00:30:47.943Z,0.90
2017-01-05T00:31:09.758Z,0.86
2017-01-05T00:31:31.900Z,0.87
2017-01-05T00:31:53.805Z,0.89
2017-01-05T00:32:20.449Z,0.88
2017-01-05T00:32:42.617Z,0.84
2017-01-05T00:33:04.407Z,0.82
2017-01-05T00:33:26.154Z,0.83
2017-01-05T00:33:47.901Z,0.83
2017-01-05T00:34:10.657Z,0.83
2017-01-05T00:34:32.419Z,0.86
2017-01-05T00:34:54.169Z,0.85
2017-01-05T00:35:15.910Z,0.88
2017-01-05T00:35:37.644Z,0.87
2017-01-05T00:35:59.588Z,0.84
2017-01-05T00:36:21.653Z,0.84
2017-01-05T00:36:44.089Z,0.79
2017-01-05T00:37:06.069Z,0.79
2017-01-05T00:37:27.949Z,0.79
2017-01-05T00:37:49.919Z,0.79
2017-01-05T00:38:12.083Z,0.79
2017-01-05T00:38:33.913Z,0.77
2017-01-05T00:39:00.445Z,0.78
2017-01-05T00:39:22.358Z,0.77
2017-01-05T00:39:44.319Z,0.82
2017-01-05T00:40:06.197Z,0.84
2017-01-05T00:40:27.996Z,0.84
2017-01-05T00:40:49.746Z,0.81
2017-01-05T00:41:11.689Z,0.78
2017-01-05T00:41:33.644Z,0.74
2017-01-05T00:41:55.622Z,0.72
2017-01-05T00:42:17.673Z,0.74
2017-01-05T00:42:39.408Z,0.76
2017-01-05T00:43:01.170Z,0.74
2017-01-05T00:43:22.941Z,0.76
2017-01-05T00:43:44.678Z,0.76
2017-01-05T00:44:06.428Z,0.75
2017-01-05T00:44:28.182Z,0.76
2017-01-05T00:44:49.952Z,0.78
2017-01-05T00:45:11.849Z,0.80
2017-01-05T00:45:33.741Z,0.81
2017-01-05T00:45:56.646Z,0.82
2017-01-05T00:46:18.408Z,0.81
2017-01-05T00:46:40.223Z,0.80
2017-01-05T00:47:02.085Z,0.80
2017-01-05T00:47:24.287Z,0.77
2017-01-05T00:47:46.243Z,0.81
2017-01-05T00:48:07.992Z,0.79
2017-01-05T00:48:33.587Z,0.78
2017-01-05T00:48:55.341Z,0.78
2017-01-05T00:49:21.951Z,0.79
2017-01-05T00:49:43.699Z,0.80
2017-01-05T00:50:05.436Z,0.82
2017-01-05T00:50:27.187Z,0.81
2017-01-05T00:50:49.251Z,0.81
2017-01-05T00:51:11.001Z,0.82
2017-01-05T00:51:32.745Z,0.81
2017-01-05T00:51:54.489Z,0.84
2017-01-05T00:52:16.252Z,0.82
2017-01-05T00:52:40.783Z,0.80
2017-01-05T00:53:02.543Z,0.79
2017-01-05T00:53:24.275Z,0.83
2017-01-05T00:53:46.038Z,0.82
2017-01-05T00:54:07.786Z,0.82
2017-01-05T00:54:29.660Z,0.79
2017-01-05T00:54:51.494Z,0.77
2017-01-05T00:55:13.247Z,0.78
2017-01-05T00:55:35.142Z,0.78
2017-01-05T00:55:56.963Z,0.77
2017-01-05T00:56:18.950Z,0.80
2017-01-05T00:56:40.822Z,0.81
2017-01-05T00:57:02.592Z,0.77
2017-01-05T00:57:24.393Z,0.74
2017-01-05T00:57:46.224Z,0.75
2017-01-05T00:58:08.194Z,0.73
2017-01-05T00:58:29.977Z,0.74
2017-01-05T00:58:51.721Z,0.71
2017-01-05T00:59:13.564Z,0.68
2017-01-05T00:59:35.564Z,0.69
2017-01-05T00:59:57.369Z,0.71
2017-01-05T01:00:19.269Z,0.73
2017-01-05T01:00:41.017Z,0.73
2017-01-05T01:01:02.767Z,0.66
2017-01-05T01:01:29.288Z,0.63
2017-01-05T01:01:51.035Z,0.66
2017-01-05T01:02:12.774Z,0.67
2017-01-05T01:02:34.520Z,0.69
2017-01-05T01:02:56.342Z,0.71
2017-01-05T01:03:18.293Z,0.71
2017-01-05T01:03:40.031Z,0.66
2017-01-05T01:04:01.835Z,0.66
2017-01-05T01:04:23.601Z,0.64
2017-01-05T01:04:45.372Z,0.66
2017-01-05T01:05:07.124Z,0.62
2017-01-05T01:05:28.856Z,0.62
2017-01-05T01:05:50.594Z,0.63
2017-01-05T01:06:12.347Z,0.67
2017-01-05T01:06:34.089Z,0.66
2017-01-05T01:06:55.857Z,0.63
2017-01-05T01:07:17.602Z,0.64
2017-01-05T01:07:39.474Z,0.66
2017-01-05T01:08:01.218Z,0.66
2017-01-05T01:08:23.032Z,0.67
2017-01-05T01:08:44.778Z,0.68
2017-01-05T01:09:06.524Z,0.69
2017-01-05T01:09:28.267Z,0.70
2017-01-05T01:09:50.059Z,0.70
2017-01-05T01:10:11.791Z,0.68
2017-01-05T01:10:33.528Z,0.66
2017-01-05T01:10:55.266Z,0.63
2017-01-05T01:11:17.006Z,0.61
2017-01-05T01:11:38.740Z,0.60
2017-01-05T01:12:00.676Z,0.60
2017-01-05T01:12:22.305Z,0.59
2017-01-05T01:12:44.046Z,0.59
2017-01-05T01:13:10.549Z,0.60
2017-01-05T01:13:32.347Z,0.60
2017-01-05T01:13:58.855Z,0.60
2017-01-05T01:14:20.626Z,0.65
2017-01-05T01:14:42.389Z,0.65
2017-01-05T01:15:04.148Z,0.64
2017-01-05T01:15:25.883Z,0.62
2017-01-05T01:15:47.634Z,0.62
2017-01-05T01:16:09.429Z,0.61
2017-01-05T01:16:31.671Z,0.60
2017-01-05T01:16:53.470Z,0.61
2017-01-05T01:17:15.450Z,0.59
2017-01-05T01:17:38.468Z,0.57
2017-01-05T01:18:00.350Z,0.55
2017-01-05T01:18:22.292Z,0.55
2017-01-05T01:18:44.499Z,0.55
2017-01-05T01:19:06.555Z,0.54
2017-01-05T01:19:28.451Z,0.53
2017-01-05T01:19:50.200Z,0.52
2017-01-05T01:20:11.998Z,0.53
2017-01-05T01:20:33.956Z,0.53
2017-01-05T01:20:55.741Z,0.55
2017-01-05T01:21:17.584Z,0.54
2017-01-05T01:21:39.402Z,0.50
2017-01-05T01:22:01.569Z,0.45
2017-01-05T01:22:23.656Z,0.45
2017-01-05T01:22:45.684Z,0.45
2017-01-05T01:23:07.594Z,0.48
2017-01-05T01:23:29.328Z,0.51
2017-01-05T01:23:51.172Z,0.55
2017-01-05T01:24:13.102Z,0.60
2017-01-05T01:24:34.838Z,0.62
2017-01-05T01:24:56.688Z,0.59
2017-01-05T01:25:18.449Z,0.58
2017-01-05T01:25:40.209Z,0.56
2017-01-05T01:26:01.985Z,0.56
2017-01-05T01:26:23.987Z,0.55
2017-01-05T01:26:45.980Z,0.50
2017-01-05T01:27:07.980Z,0.49
2017-01-05T01:27:29.852Z,0.48
2017-01-05T01:27:51.655Z,0.48
2017-01-05T01:28:13.450Z,0.47
2017-01-05T01:28:35.491Z,0.48
2017-01-05T01:28:57.280Z,0.47
2017-01-05T01:29:19.328Z,0.47
2017-01-05T01:29:41.247Z,0.45
2017-01-05T01:30:03.159Z,0.45
2017-01-05T01:30:24.897Z,0.44
2017-01-05T01:30:46.665Z,0.45
2017-01-05T01:31:08.501Z,0.46
2017-01-05T01:31:30.282Z,0.49
2017-01-05T01:31:52.039Z,0.51
2017-01-05T01:32:13.789Z,0.46
2017-01-05T01:32:40.297Z,0.48
2017-01-05T01:33:02.106Z,0.45
2017-01-05T01:33:23.856Z,0.45
2017-01-05T01:33:50.374Z,0.43
2017-01-05T01:34:12.115Z,0.40
2017-01-05T01:34:33.856Z,0.40
2017-01-05T01:34:55.602Z,0.38
2017-01-05T01:35:17.414Z,0.36
2017-01-05T01:35:39.165Z,0.34
2017-01-05T01:36:00.957Z,0.35
2017-01-05T01:36:22.695Z,0.35
2017-01-05T01:36:44.456Z,0.38
2017-01-05T01:37:06.195Z,0.40
2017-01-05T01:37:27.943Z,0.41
2017-01-05T01:37:49.696Z,0.44
2017-01-05T01:38:11.462Z,0.47
2017-01-05T01:38:33.540Z,0.46
2017-01-05T01:38:55.584Z,0.44
2017-01-05T01:39:17.385Z,0.43
2017-01-05T01:39:39.130Z,0.40
2017-01-05T01:40:00.865Z,0.38
2017-01-05T01:40:22.615Z,0.39
2017-01-05T01:40:49.136Z,0.37
2017-01-05T01:41:10.983Z,0.36
2017-01-05T01:41:32.973Z,0.39
2017-01-05T01:41:59.715Z,0.36
2017-01-05T01:42:21.821Z,0.40
2017-01-05T01:42:43.728Z,0.40
2017-01-05T01:43:05.737Z,0.41
2017-01-05T01:43:27.869Z,0.41
2017-01-05T01:43:49.611Z,0.43
2017-01-05T01:44:11.358Z,0.42
2017-01-05T01:44:33.108Z,0.43
2017-01-05T01:44:55.854Z,0.45
2017-01-05T01:45:17.600Z,0.48
2017-01-05T01:45:39.362Z,0.46
2017-01-05T01:46:05.859Z,0.50
2017-01-05T01:46:27.625Z,0.48
2017-01-05T01:46:49.370Z,0.51
2017-01-05T01:47:11.125Z,0.51
2017-01-05T01:47:32.881Z,0.50
2017-01-05T01:47:54.621Z,0.49
2017-01-05T01:48:16.370Z,0.49
2017-01-05T01:48:38.128Z,0.46
2017-01-05T01:48:59.865Z,0.44
2017-01-05T01:49:21.698Z,0.46
2017-01-05T01:49:43.443Z,0.45
2017-01-05T01:50:05.552Z,0.46
2017-01-05T01:50:27.392Z,0.45
2017-01-05T01:50:49.488Z,0.44
2017-01-05T01:51:11.291Z,0.43
2017-01-05T01:51:33.056Z,0.42
2017-01-05T01:51:54.884Z,0.42
2017-01-05T01:52:16.717Z,0.42
2017-01-05T01:52:38.535Z,0.41
2017-01-05T01:53:00.278Z,0.46
2017-01-05T01:53:22.175Z,0.44
2017-01-05T01:53:43.920Z,0.46
2017-01-05T01:54:10.433Z,0.44
2017-01-05T01:54:32.189Z,0.43
2017-01-05T01:54:54.006Z,0.42
2017-01-05T01:55:15.780Z,0.39
2017-01-05T01:55:38.016Z,0.39
2017-01-05T01:55:59.754Z,0.40
2017-01-05T01:56:21.493Z,0.41
2017-01-05T01:56:43.443Z,0.41
2017-01-05T01:57:05.221Z,0.45
2017-01-05T01:57:27.968Z,0.49
2017-01-05T01:57:54.476Z,0.46
2017-01-05T01:58:16.221Z,0.49
2017-01-05T01:58:37.967Z,0.47
2017-01-05T01:58:59.715Z,0.45
2017-01-05T01:59:21.456Z,0.43
2017-01-05T01:59:43.205Z,0.40
2017-01-05T02:00:04.959Z,0.39
2017-01-05T02:00:26.703Z,0.38
2017-01-05T02:00:48.448Z,0.40
2017-01-05T02:01:11.184Z,0.45
2017-01-05T02:01:37.689Z,0.49
2017-01-05T02:01:59.442Z,0.48
2017-01-05T02:02:25.951Z,0.44
2017-01-05T02:02:47.792Z,0.42
2017-01-05T02:03:09.548Z,0.40
2017-01-05T02:03:31.299Z,0.43
2017-01-05T02:03:53.052Z,0.42
2017-01-05T02:04:14.793Z,0.42
2017-01-05T02:04:41.294Z,0.39
2017-01-05T02:05:04.299Z,0.39
2017-01-05T02:05:26.402Z,0.40
2017-01-05T02:05:48.160Z,0.39
2017-01-05T02:06:09.901Z,0.39
2017-01-05T02:06:31.631Z,0.40
2017-01-05T02:06:53.379Z,0.38
2017-01-05T02:07:15.120Z,0.38
2017-01-05T02:07:36.863Z,0.42
2017-01-05T02:07:58.645Z,0.41
2017-01-05T02:08:20.553Z,0.39
2017-01-05T02:08:47.177Z,0.35
2017-01-05T02:09:08.915Z,0.36
2017-01-05T02:09:30.803Z,0.35
2017-01-05T02:09:52.636Z,0.33
2017-01-05T02:10:14.632Z,0.32
2017-01-05T02:10:36.434Z,0.31
2017-01-05T02:10:58.434Z,0.34
2017-01-05T02:11:20.525Z,0.34
2017-01-05T02:11:42.456Z,0.34
2017-01-05T02:12:04.303Z,0.34
2017-01-05T02:12:26.283Z,0.36
2017-01-05T02:12:48.164Z,0.38
2017-01-05T02:13:10.046Z,0.40
2017-01-05T02:13:31.783Z,0.39
2017-01-05T02:13:53.695Z,0.37
2017-01-05T02:14:15.437Z,0.36
2017-01-05T02:14:37.179Z,0.34
2017-01-05T02:14:58.923Z,0.31
2017-01-05T02:15:20.674Z,0.30
2017-01-05T02:15:43.523Z,0.32
2017-01-05T02:16:05.309Z,0.33
2017-01-05T02:16:27.063Z,0.35
2017-01-05T02:16:48.854Z,0.34
2017-01-05T02:17:10.722Z,0.33
2017-01-05T02:17:32.660Z,0.33
2017-01-05T02:17:54.424Z,0.32
2017-01-05T02:18:16.181Z,0.28
2017-01-05T02:18:37.936Z,0.27
2017-01-05T02:18:59.690Z,0.32
2017-01-05T02:19:21.453Z,0.36
2017-01-05T02:19:43.210Z,0.35
2017-01-05T02:20:05.145Z,0.36
2017-01-05T02:20:27.117Z,0.33
2017-01-05T02:20:49.271Z,0.32
2017-01-05T02:21:11.014Z,0.31
2017-01-05T02:21:32.756Z,0.32
2017-01-05T02:21:54.497Z,0.31
2017-01-05T02:22:16.262Z,0.32
2017-01-05T02:22:38.065Z,0.35
2017-01-05T02:23:00.089Z,0.37
2017-01-05T02:23:22.281Z,0.37
2017-01-05T02:23:44.074Z,0.38
2017-01-05T02:24:05.813Z,0.32
2017-01-05T02:24:27.558Z,0.27
2017-01-05T02:24:49.293Z,0.30
2017-01-05T02:25:11.065Z,0.36
2017-01-05T02:25:34.017Z,0.31
2017-01-05T02:25:56.176Z,0.30
2017-01-05T02:26:17.940Z,0.27
2017-01-05T02:26:39.683Z,0.27
2017-01-05T02:27:01.786Z,0.25
2017-01-05T02:27:23.737Z,0.25
2017-01-05T02:27:45.549Z,0.24
2017-01-05T02:28:07.478Z,0.21
2017-01-05T02:28:29.418Z,0.17
2017-01-05T02:28:51.305Z,0.17
2017-01-05T02:29:13.040Z,0.19
2017-01-05T02:29:35.824Z,0.17
2017-01-05T02:29:57.559Z,0.19
2017-01-05T02:30:19.984Z,0.18
2017-01-05T02:30:42.243Z,0.20
2017-01-05T02:31:04.027Z,0.18
2017-01-05T02:31:25.803Z,0.19
2017-01-05T02:31:47.548Z,0.19
2017-01-05T02:32:09.287Z,0.24
2017-01-05T02:32:31.031Z,0.24
2017-01-05T02:32:53.063Z,0.27
2017-01-05T02:33:14.996Z,0.26
2017-01-05T02:33:36.867Z,0.25
2017-01-05T02:33:58.650Z,0.24
2017-01-05T02:34:23.159Z,0.23
2017-01-05T02:34:44.911Z,0.22
2017-01-05T02:35:06.680Z,0.23
2017-01-05T02:35:28.426Z,0.24
2017-01-05T02:35:54.950Z,0.23
2017-01-05T02:36:16.700Z,0.24
2017-01-05T02:36:38.454Z,0.24
2017-01-05T02:37:00.198Z,0.24
2017-01-05T02:37:21.966Z,0.27
2017-01-05T02:37:48.470Z,0.27
2017-01-05T02:38:10.198Z,0.25
2017-01-05T02:38:31.943Z,0.25
2017-01-05T02:38:53.692Z,0.23
2017-01-05T02:39:16.426Z,0.23
2017-01-05T02:39:38.193Z,0.20
2017-01-05T02:39:59.972Z,0.19
2017-01-05T02:40:21.741Z,0.20
2017-01-05T02:40:43.507Z,0.17
2017-01-05T02:41:05.223Z,0.18
2017-01-05T02:41:26.960Z,0.16
2017-01-05T02:41:53.469Z,0.14
2017-01-05T02:42:15.216Z,0.15
2017-01-05T02:42:36.962Z,0.16
2017-01-05T02:42:58.699Z,0.14
2017-01-05T02:43:20.538Z,0.13
2017-01-05T02:43:42.282Z,0.17
2017-01-05T02:44:04.176Z,0.17
2017-01-05T02:44:25.988Z,0.17
2017-01-05T02:44:48.839Z,0.15
2017-01-05T02:45:10.656Z,0.13
2017-01-05T02:45:32.557Z,0.13
2017-01-05T02:45:55.349Z,0.14
2017-01-05T02:46:17.344Z,0.21
2017-01-05T02:46:39.105Z,0.21
2017-01-05T02:47:00.841Z,0.20
2017-01-05T02:47:22.599Z,0.21
2017-01-05T02:47:44.359Z,0.20
2017-01-05T02:48:06.144Z,0.25
2017-01-05T02:48:29.069Z,0.26
2017-01-05T02:48:50.794Z,0.26
2017-01-05T02:49:12.537Z,0.26
2017-01-05T02:49:34.287Z,0.26
2017-01-05T02:49:56.020Z,0.25
2017-01-05T02:50:17.764Z,0.27
2017-01-05T02:50:39.542Z,0.30
2017-01-05T02:51:01.307Z,0.32
2017-01-05T02:51:23.047Z,0.33
2017-01-05T02:51:44.945Z,0.33
2017-01-05T02:52:06.952Z,0.32
2017-01-05T02:52:33.540Z,0.32
2017-01-05T02:52:55.326Z,0.30
2017-01-05T02:53:17.072Z,0.32
2017-01-05T02:53:43.615Z,0.31
2017-01-05T02:54:05.380Z,0.32
2017-01-05T02:54:27.127Z,0.28
2017-01-05T02:54:49.012Z,0.30
2017-01-05T02:55:10.878Z,0.31
2017-01-05T02:55:32.742Z,0.32
2017-01-05T02:55:54.555Z,0.30
2017-01-05T02:56:16.313Z,0.30
2017-01-05T02:56:38.074Z,0.31
2017-01-05T02:56:59.820Z,0.26
2017-01-05T02:57:21.606Z,0.28
2017-01-05T02:57:43.387Z,0.23
2017-01-05T02:58:05.150Z,0.23
2017-01-05T02:58:27.052Z,0.25
2017-01-05T02:58:48.893Z,0.23
2017-01-05T02:59:10.640Z,0.25
2017-01-05T03:00:03.728Z,0.28
2017-01-05T03:00:26.503Z,0.28
2017-01-05T03:00:48.461Z,0.30
2017-01-05T03:01:10.410Z,0.33
2017-01-05T03:01:32.596Z,0.37
2017-01-05T03:01:54.606Z,0.40
2017-01-05T03:02:16.687Z,0.41
2017-01-05T03:02:38.731Z,0.43
2017-01-05T03:03:00.580Z,0.44
2017-01-05T03:03:22.552Z,0.45
2017-01-05T03:03:44.466Z,0.45
2017-01-05T03:04:32.785Z,0.46
2017-01-05T03:04:56.484Z,0.47
2017-01-05T03:05:20.889Z,0.51
2017-01-05T03:05:42.685Z,0.52
2017-01-05T03:06:04.441Z,0.53
2017-01-05T03:06:26.177Z,0.54
2017-01-05T03:06:48.081Z,0.56
2017-01-05T03:07:09.844Z,0.56
2017-01-05T03:07:32.697Z,0.56
2017-01-05T03:07:54.867Z,0.56
2017-01-05T03:08:16.612Z,0.55
2017-01-05T03:08:38.365Z,0.53
2017-01-05T03:09:00.102Z,0.49
2017-01-05T03:09:21.984Z,0.48
2017-01-05T03:09:43.797Z,0.44
2017-01-05T03:10:05.667Z,0.43
2017-01-05T03:10:27.414Z,0.42
2017-01-05T03:10:49.376Z,0.41
2017-01-05T03:11:11.129Z,0.40
2017-01-05T03:11:33.291Z,0.40
2017-01-05T03:11:55.261Z,0.43
2017-01-05T03:12:17.176Z,0.39
2017-01-05T03:12:39.057Z,0.42
2017-01-05T03:13:01.021Z,0.44
2017-01-05T03:13:22.993Z,0.45
2017-01-05T03:13:44.913Z,0.49
2017-01-05T03:14:06.922Z,0.50
2017-01-05T03:14:28.878Z,0.56
2017-01-05T03:14:50.666Z,0.58
2017-01-05T03:15:12.758Z,0.58
2017-01-05T03:15:34.803Z,0.57
2017-01-05T03:15:56.666Z,0.59
2017-01-05T03:16:18.538Z,0.60
2017-01-05T03:16:40.551Z,0.62
2017-01-05T03:17:02.363Z,0.67
2017-01-05T03:17:24.343Z,0.68
2017-01-05T03:17:46.340Z,0.69
2017-01-05T03:18:09.182Z,0.71
2017-01-05T03:18:31.118Z,0.71
2017-01-05T03:18:53.232Z,0.68
2017-01-05T03:19:15.183Z,0.66
2017-01-05T03:19:37.089Z,0.67
2017-01-05T03:20:25.825Z,0.72
2017-01-05T03:20:47.582Z,0.73
2017-01-05T03:21:09.502Z,0.74
2017-01-05T03:21:32.500Z,0.76
2017-01-05T03:21:54.241Z,0.81
2017-01-05T03:22:15.986Z,0.86
2017-01-05T03:22:37.741Z,0.91
2017-01-05T03:22:59.515Z,0.92
2017-01-05T03:23:21.268Z,0.95
2017-01-05T03:23:43.012Z,0.95
2017-01-05T03:24:04.756Z,0.97
2017-01-05T03:24:26.595Z,0.97
2017-01-05T03:24:48.357Z,0.99
2017-01-05T03:25:10.087Z,0.99
2017-01-05T03:25:31.832Z,1.01
2017-01-05T03:25:53.588Z,1.00
2017-01-05T03:26:15.377Z,1.00
2017-01-05T03:26:37.132Z,1.01
2017-01-05T03:26:58.929Z,0.99
2017-01-05T03:27:20.858Z,0.98
2017-01-05T03:27:42.872Z,0.99
2017-01-05T03:28:04.872Z,1.02
2017-01-05T03:28:26.858Z,1.01
2017-01-05T03:28:49.591Z,0.98
2017-01-05T03:29:11.323Z,0.96
2017-01-05T03:29:33.083Z,0.94
2017-01-05T03:29:54.821Z,0.94
2017-01-05T03:30:16.573Z,0.96
2017-01-05T03:30:40.317Z,0.92
2017-01-05T03:31:28.574Z,0.86
2017-01-05T03:31:50.315Z,0.86
2017-01-05T03:32:12.062Z,0.90
2017-01-05T03:32:33.821Z,0.90
2017-01-05T03:32:55.578Z,0.93
2017-01-05T03:33:17.381Z,0.96
2017-01-05T03:33:39.127Z,0.98
2017-01-05T03:34:00.869Z,0.99
2017-01-05T03:34:22.609Z,1.00
2017-01-05T03:34:44.420Z,0.99
2017-01-05T03:35:06.171Z,0.99
2017-01-05T03:35:27.911Z,0.98
2017-01-05T03:35:49.671Z,1.00
2017-01-05T03:36:11.431Z,1.01
2017-01-05T03:36:33.184Z,1.05
2017-01-05T03:36:54.940Z,1.07
2017-01-05T03:37:16.679Z,1.09
2017-01-05T03:37:38.459Z,1.10
2017-01-05T03:38:00.223Z,1.11
2017-01-05T03:38:22.012Z,1.13
2017-01-05T03:38:43.825Z,1.15
2017-01-05T03:39:05.578Z,1.18
2017-01-05T03:39:27.307Z,1.20
2017-01-05T03:39:49.098Z,1.20
2017-01-05T03:40:10.798Z,1.19
2017-01-05T03:40:32.763Z,1.19
2017-01-05T03:40:54.564Z,1.18
2017-01-05T03:41:16.471Z,1.22
2017-01-05T03:41:38.331Z,1.24
2017-01-05T03:42:00.094Z,1.25
2017-01-05T03:42:22.297Z,1.29
2017-01-05T03:42:44.169Z,1.32
2017-01-05T03:43:05.934Z,1.34
2017-01-05T03:43:27.694Z,1.36
2017-01-05T03:43:49.490Z,1.35
2017-01-05T03:44:11.338Z,1.37
2017-01-05T03:44:33.249Z,1.37
2017-01-05T03:44:55.005Z,1.36
2017-01-05T03:45:43.723Z,1.37
2017-01-05T03:46:05.585Z,1.39
2017-01-05T03:46:27.372Z,1.40
2017-01-05T03:46:50.143Z,1.37
2017-01-05T03:47:11.943Z,1.38
2017-01-05T03:47:34.776Z,1.39
2017-01-05T03:47:56.638Z,1.39
2017-01-05T03:48:18.543Z,1.39
2017-01-05T03:48:40.562Z,1.43
2017-01-05T03:49:02.342Z,1.40
2017-01-05T03:49:26.837Z,1.38
2017-01-05T03:49:48.794Z,1.38
2017-01-05T03:50:10.672Z,1.39
2017-01-05T03:50:32.726Z,1.38
2017-01-05T03:50:54.471Z,1.37
2017-01-05T03:51:16.211Z,1.36
2017-01-05T03:51:37.945Z,1.34
2017-01-05T03:51:59.736Z,1.34
2017-01-05T03:52:21.486Z,1.33
2017-01-05T03:52:43.238Z,1.32
2017-01-05T03:53:04.982Z,1.32
2017-01-05T03:53:26.719Z,1.32
2017-01-05T03:53:48.501Z,1.31
2017-01-05T03:54:10.281Z,1.32
2017-01-05T03:54:59.734Z,1.34
2017-01-05T03:55:21.483Z,1.33
2017-01-05T03:55:43.238Z,1.35
2017-01-05T03:56:04.994Z,1.35
2017-01-05T03:56:26.770Z,1.36
2017-01-05T03:56:48.600Z,1.38
2017-01-05T03:57:10.687Z,1.38
2017-01-05T03:57:32.773Z,1.39
2017-01-05T03:57:54.709Z,1.37
2017-01-05T03:58:16.447Z,1.39
2017-01-05T03:58:38.184Z,1.39
2017-01-05T03:58:59.929Z,1.39
2017-01-05T03:59:21.720Z,1.39
2017-01-05T03:59:43.491Z,1.42
2017-01-05T04:00:05.237Z,1.40
2017-01-05T04:00:26.984Z,1.40
2017-01-05T04:00:48.741Z,1.40
2017-01-05T04:01:39.948Z,1.40
2017-01-05T04:02:01.684Z,1.40
2017-01-05T04:02:23.423Z,1.43
2017-01-05T04:02:45.199Z,1.43
2017-01-05T04:03:07.019Z,1.42
2017-01-05T04:03:28.772Z,1.43
2017-01-05T04:03:50.527Z,1.43
2017-01-05T04:04:12.276Z,1.43
2017-01-05T04:04:35.030Z,1.42
2017-01-05T04:04:56.792Z,1.40
2017-01-05T04:05:18.532Z,1.41
2017-01-05T04:05:40.280Z,1.44
2017-01-05T04:06:02.049Z,1.43
2017-01-05T04:06:23.817Z,1.43
2017-01-05T04:06:45.563Z,1.44
2017-01-05T04:07:07.336Z,1.45
2017-01-05T04:07:29.084Z,1.43
2017-01-05T04:08:17.361Z,1.46
2017-01-05T04:08:39.115Z,1.45
2017-01-05T04:09:27.375Z,1.41
2017-01-05T04:09:49.407Z,1.40
2017-01-05T04:10:11.259Z,1.41
2017-01-05T04:10:32.992Z,1.43
2017-01-05T04:10:54.729Z,1.41
2017-01-05T04:11:16.473Z,1.41
2017-01-05T04:11:38.222Z,1.41
2017-01-05T04:12:00.114Z,1.40
2017-01-05T04:12:21.976Z,1.43
2017-01-05T04:12:43.711Z,1.43
2017-01-05T04:13:05.622Z,1.40
2017-01-05T04:13:27.538Z,1.41
2017-01-05T04:13:49.350Z,1.43
2017-01-05T04:14:37.957Z,1.43
2017-01-05T04:15:00.760Z,1.42
2017-01-05T04:15:23.634Z,1.43
2017-01-05T04:15:46.707Z,1.43
2017-01-05T04:16:08.571Z,1.45
2017-01-05T04:16:30.389Z,1.44
2017-01-05T04:16:52.351Z,1.43
2017-01-05T04:17:14.230Z,1.43
2017-01-05T04:17:36.098Z,1.41
2017-01-05T04:17:57.830Z,1.41
2017-01-05T04:18:24.397Z,1.40
2017-01-05T04:18:46.646Z,1.39
2017-01-05T04:19:08.549Z,1.38
2017-01-05T04:19:30.316Z,1.38
2017-01-05T04:19:52.245Z,1.39
2017-01-05T04:20:20.796Z,1.40
2017-01-05T04:20:42.556Z,1.37
2017-01-05T04:21:05.291Z,1.38
2017-01-05T04:21:27.039Z,1.39
2017-01-05T04:21:48.789Z,1.39
2017-01-05T04:22:10.674Z,1.38
2017-01-05T04:22:32.456Z,1.38
2017-01-05T04:22:54.185Z,1.38
2017-01-05T04:23:15.930Z,1.38
2017-01-05T04:23:37.692Z,1.39
2017-01-05T04:24:00.439Z,1.43
2017-01-05T04:24:22.432Z,1.44
2017-01-05T04:24:44.960Z,1.46
2017-01-05T04:25:06.702Z,1.45
2017-01-05T04:25:28.579Z,1.45
2017-01-05T04:25:50.757Z,1.44
2017-01-05T04:26:12.698Z,1.41
2017-01-05T04:26:34.444Z,1.43
2017-01-05T04:26:56.187Z,1.42
2017-01-05T04:27:18.067Z,1.41
2017-01-05T04:27:39.809Z,1.44
2017-01-05T04:28:01.551Z,1.44
2017-01-05T04:28:23.291Z,1.45
2017-01-05T04:28:45.046Z,1.45
2017-01-05T04:29:06.790Z,1.43
2017-01-05T04:29:28.528Z,1.41
2017-01-05T04:29:50.271Z,1.40
2017-01-05T04:30:12.003Z,1.38
2017-01-05T04:30:33.746Z,1.39
2017-01-05T04:30:59.094Z,1.39
2017-01-05T04:31:20.905Z,1.38
2017-01-05T04:31:42.678Z,1.36
2017-01-05T04:32:04.511Z,1.35
2017-01-05T04:32:26.246Z,1.34
2017-01-05T04:32:48.362Z,1.34
2017-01-05T04:33:10.775Z,1.35
2017-01-05T04:33:32.745Z,1.35
2017-01-05T04:33:54.608Z,1.33
2017-01-05T04:34:16.639Z,1.35
2017-01-05T04:34:38.371Z,1.34
2017-01-05T04:35:01.125Z,1.34
2017-01-05T04:35:22.867Z,1.32
2017-01-05T04:35:44.611Z,1.33
2017-01-05T04:36:06.425Z,1.33
2017-01-05T04:36:28.187Z,1.32
2017-01-05T04:36:50.941Z,1.32
2017-01-05T04:37:12.677Z,1.33
2017-01-05T04:37:39.186Z,1.33
2017-01-05T04:38:00.942Z,1.37
2017-01-05T04:38:22.664Z,1.37
2017-01-05T04:38:44.405Z,1.35
2017-01-05T04:39:06.160Z,1.32
2017-01-05T04:39:27.964Z,1.32
2017-01-05T04:39:49.698Z,1.31
2017-01-05T04:40:12.518Z,1.32
2017-01-05T04:40:34.267Z,1.33
2017-01-05T04:40:56.016Z,1.31
2017-01-05T04:41:22.664Z,1.29
2017-01-05T04:41:49.059Z,1.28
2017-01-05T04:42:10.800Z,1.27
2017-01-05T04:42:32.605Z,1.26
2017-01-05T04:42:54.747Z,1.25
2017-01-05T04:43:16.494Z,1.25
2017-01-05T04:43:38.253Z,1.25
2017-01-05T04:43:59.990Z,1.26
2017-01-05T04:44:21.725Z,1.28
2017-01-05T04:44:43.782Z,1.28
2017-01-05T04:45:10.360Z,1.29
2017-01-05T04:45:32.117Z,1.29
2017-01-05T04:45:53.902Z,1.30
2017-01-05T04:46:15.747Z,1.31
2017-01-05T04:46:37.668Z,1.29
2017-01-05T04:46:59.480Z,1.27
2017-01-05T04:47:21.340Z,1.26
2017-01-05T04:47:43.248Z,1.25
2017-01-05T04:48:05.007Z,1.27
2017-01-05T04:48:28.057Z,1.28
2017-01-05T04:48:50.022Z,1.25
2017-01-05T04:49:12.016Z,1.25
2017-01-05T04:49:33.835Z,1.24
2017-01-05T04:49:55.820Z,1.23
2017-01-05T04:50:17.580Z,1.21
2017-01-05T04:50:39.330Z,1.21
2017-01-05T04:51:01.083Z,1.20
2017-01-05T04:51:22.944Z,1.22
2017-01-05T04:51:44.684Z,1.22
2017-01-05T04:52:06.472Z,1.23
2017-01-05T04:52:28.254Z,1.22
2017-01-05T04:52:50.044Z,1.19
2017-01-05T04:53:11.789Z,1.17
2017-01-05T04:53:33.922Z,1.19
2017-01-05T04:53:55.910Z,1.18
2017-01-05T04:54:22.639Z,1.19
2017-01-05T04:54:45.125Z,1.18
2017-01-05T04:55:06.947Z,1.18
2017-01-05T04:55:28.758Z,1.19
2017-01-05T04:55:50.700Z,1.17
2017-01-05T04:56:12.765Z,1.18
2017-01-05T04:56:34.518Z,1.18
2017-01-05T04:56:56.275Z,1.19
2017-01-05T04:57:18.224Z,1.18
2017-01-05T04:57:40.134Z,1.17
2017-01-05T04:58:02.028Z,1.18
2017-01-05T04:58:23.807Z,1.21
2017-01-05T04:58:45.683Z,1.21
2017-01-05T04:59:07.594Z,1.19
2017-01-05T04:59:29.431Z,1.18
2017-01-05T04:59:51.175Z,1.19
2017-01-05T05:00:13.019Z,1.18